WetterOnline ( http://www.wetteronline.de )

Wetter aktuell Bramsche

Aktuelles Wetter: Belm (103m)

6-stündlich | Neueste Meldungen
Ortszeit Temperatur Wetter
Do, 21.03. 7:00 9.0° C bedeckt
Do, 21.03. 1:00 9.4° C bedeckt
Mi, 20.03. 19:00 9.7° C bedeckt
Mi, 20.03. 13:00 10.5° C bedeckt
Mi, 20.03. 7:00 2.5° C wolkenlos
Mi, 20.03. 1:00 3.6° C leicht bewölkt
Di, 19.03. 19:00 6.7° C fast wolkenlos
Di, 19.03. 13:00 7.7° C leicht bewölkt
Ortszeit Temperatur Wetter
Do, 21.03. 10:30 12.0° C wolkenlos
Do, 21.03. 10:20 12.0° C wolkenlos
Do, 21.03. 10:10 11.9° C wolkenlos
Do, 21.03. 10:00 11.4° C leicht bewölkt
Do, 21.03. 9:50 11.4° C leicht bewölkt
Do, 21.03. 9:40 11.0° C wolkig
Do, 21.03. 9:30 10.3° C bedeckt
Do, 21.03. 9:00 9.6° C bedeckt
Do, 21.03. 8:30 9.1° C bedeckt
Do, 21.03. 8:00 9.0° C bedeckt
Do, 21.03. 7:30 8.9° C bedeckt
Ortszeit Relative Feuchte Sichtweite
Do, 21.03. 7:00 87% 4.3 km
Do, 21.03. 1:00 85% 6 km
Mi, 20.03. 19:00 80% 18 km
Mi, 20.03. 13:00 68% 17 km
Mi, 20.03. 7:00 85% 9 km
Mi, 20.03. 1:00 74% 29 km
Di, 19.03. 19:00 62% 60 km
Di, 19.03. 13:00 61% 35 km
Ortszeit Relative Feuchte Sichtweite
Do, 21.03. 10:30 71% 7 km
Do, 21.03. 10:20 71% -
Do, 21.03. 10:10 71% -
Do, 21.03. 10:00 74% 6 km
Do, 21.03. 9:50 74% -
Do, 21.03. 9:40 76% -
Do, 21.03. 9:30 78% 6 km
Do, 21.03. 9:00 82% 5.0 km
Do, 21.03. 8:30 86% 4.4 km
Do, 21.03. 8:00 87% 4.2 km
Do, 21.03. 7:30 88% 4.0 km
Ortszeit Niederschlagsmenge Niederschlagsart
Do, 21.03. 7:00 0.0 l/m2 in 12 Std. -
Do, 21.03. 1:00 0.0 l/m2 in 6 Std. -
Mi, 20.03. 19:00 0.1 l/m2 in 12 Std. Regen
Mi, 20.03. 13:00 0.1 l/m2 in 6 Std. Regen
Mi, 20.03. 7:00 0.0 l/m2 in 12 Std. -
Mi, 20.03. 1:00 0.0 l/m2 in 6 Std. -
Di, 19.03. 19:00 0.0 l/m2 in 12 Std. -
Di, 19.03. 13:00 0.0 l/m2 in 6 Std. -
Ortszeit Niederschlagsmenge Niederschlagsart
Do, 21.03. 10:30 0.0 l/m2 in 1 Std. -
Do, 21.03. 10:20 keine Meldung -
Do, 21.03. 10:10 keine Meldung -
Do, 21.03. 10:00 0.0 l/m2 in 1 Std. -
Do, 21.03. 9:50 keine Meldung -
Do, 21.03. 9:40 keine Meldung -
Do, 21.03. 9:30 0.0 l/m2 in 1 Std. -
Do, 21.03. 9:00 0.0 l/m2 in 1 Std. -
Do, 21.03. 8:30 0.0 l/m2 in 1 Std. -
Do, 21.03. 8:00 0.0 l/m2 in 1 Std. -
Do, 21.03. 7:30 0.0 l/m2 in 1 Std. -
Ortszeit Stärke Spitze Richtung
km/h Bft. km/h Grad Sektor
Do, 21.03. 7:00 7 2 14 200° S
Do, 21.03. 1:00 6 1 17 220° SW
Mi, 20.03. 19:00 11 2 29 230° SW
Mi, 20.03. 13:00 18 3 32 230° SW
Mi, 20.03. 7:00 7 2 14 170° S
Mi, 20.03. 1:00 7 2 14 150° SO
Di, 19.03. 19:00 2 1 28 120° SO
Di, 19.03. 13:00 17 3 31 300° NW
Ortszeit Stärke Spitze Richtung
km/h Bft. km/h Grad Sektor
Do, 21.03. 10:30 15 3 22 240° SW
Do, 21.03. 10:20 15 3 - 240° SW
Do, 21.03. 10:10 11 2 - 230° SW
Do, 21.03. 10:00 13 3 19 220° SW
Do, 21.03. 9:50 13 3 - 220° SW
Do, 21.03. 9:40 11 2 - 200° S
Do, 21.03. 9:30 7 2 11 210° SW
Do, 21.03. 9:00 7 2 11 210° SW
Do, 21.03. 8:30 7 2 7 210° SW
Do, 21.03. 8:00 6 1 9 200° S
Do, 21.03. 7:30 7 2 11 200° S
Ortszeit Untergrenze Bedeckung Gattung
total tief tief mittel hoch
Do, 21.03. 7:00 600 m 8/8 8/8 - - -
Do, 21.03. 1:00 570 m 8/8 8/8 - - -
Mi, 20.03. 19:00 540 m 8/8 8/8 - - -
Mi, 20.03. 13:00 1200 m 8/8 8/8 - - -
Mi, 20.03. 7:00 9000 m 0/8 0/8 - - -
Mi, 20.03. 1:00 4500 m 3/8 3/8 - - -
Di, 19.03. 19:00 1470 m 1/8 1/8 - - -
Di, 19.03. 13:00 1110 m 4/8 4/8 - - -
Ortszeit Bedeckungsgrad in Achtel und Wolkenuntergrenze
Do, 21.03. 10:30 keine Wolken
Do, 21.03. 10:20 keine Wolken
Do, 21.03. 10:10 keine Wolken
Do, 21.03. 10:00 2(750m)
Do, 21.03. 9:50 2(750m)
Do, 21.03. 9:40 5(720m)
Do, 21.03. 9:30 8(690m)
Do, 21.03. 9:00 8(600m)
Do, 21.03. 8:30 8(570m)
Do, 21.03. 8:00 8(540m)
Do, 21.03. 7:30 8(600m)
Ortszeit Luftdruck NN (hPa) Tendenz (hPa in 3 Std.)
Do, 21.03. 7:00 1034 + 0,4
Do, 21.03. 1:00 1035 + 0,2
Mi, 20.03. 19:00 1034 + 0,3
Mi, 20.03. 13:00 1033 + 0,4
Mi, 20.03. 7:00 1032 + 0,5
Mi, 20.03. 1:00 1032 + 0,3
Di, 19.03. 19:00 1030 + 0,7
Di, 19.03. 13:00 1029 + 0,6
Ortszeit Luftdruck NN (hPa) Tendenz (hPa in 3 Std.)
Do, 21.03. 10:30 1035 + 0,2
Do, 21.03. 10:20 1035 keine Meldung
Do, 21.03. 10:10 1035 keine Meldung
Do, 21.03. 10:00 1035 + 0,4
Do, 21.03. 9:50 1035 keine Meldung
Do, 21.03. 9:40 1035 keine Meldung
Do, 21.03. 9:30 1035 + 0,5
Do, 21.03. 9:00 1035 + 0,5
Do, 21.03. 8:30 1035 + 0,7
Do, 21.03. 8:00 1035 + 0,8
Do, 21.03. 7:30 1035 + 0,7
Ortszeit Schneehöhe (cm)
Do, 21.03. 7:00 0
Do, 21.03. 1:00 0
Mi, 20.03. 19:00 0
Mi, 20.03. 13:00 0
Mi, 20.03. 7:00 0
Mi, 20.03. 1:00 0
Di, 19.03. 19:00 0
Di, 19.03. 13:00 0
Ortszeit Schneehöhe (cm)
Do, 21.03. 10:30 0
Do, 21.03. 10:20 0
Do, 21.03. 10:10 0
Do, 21.03. 10:00 0
Do, 21.03. 9:50 0
Do, 21.03. 9:40 0
Do, 21.03. 9:30 0
Do, 21.03. 9:00 0
Do, 21.03. 8:30 0
Do, 21.03. 8:00 0
Do, 21.03. 7:30 0
Link zu dieser Seite / Seite empfehlen

Das Wetter in ...